sensor_id;sensor_type;location;lat;lon;timestamp;P1;durP1;ratioP1;P2;durP2;ratioP2
8268;SDS011;4174;48.304;16.364;2023-03-13T00:03:59;5.77;;;2.20;;
8268;SDS011;4174;48.304;16.364;2023-03-13T00:10:04;6.20;;;2.17;;
8268;SDS011;4174;48.304;16.364;2023-03-13T00:16:10;6.00;;;2.10;;
8268;SDS011;4174;48.304;16.364;2023-03-13T00:22:12;5.90;;;2.27;;
8268;SDS011;4174;48.304;16.364;2023-03-13T00:28:15;6.53;;;2.40;;
8268;SDS011;4174;48.304;16.364;2023-03-13T00:34:19;6.33;;;2.53;;
8268;SDS011;4174;48.304;16.364;2023-03-13T00:40:24;6.47;;;2.43;;
8268;SDS011;4174;48.304;16.364;2023-03-13T00:46:28;5.93;;;2.03;;
8268;SDS011;4174;48.304;16.364;2023-03-13T00:52:31;5.73;;;2.00;;
8268;SDS011;4174;48.304;16.364;2023-03-13T00:58:35;6.62;;;2.10;;
8268;SDS011;4174;48.304;16.364;2023-03-13T01:04:37;5.30;;;1.93;;
8268;SDS011;4174;48.304;16.364;2023-03-13T01:10:42;5.67;;;2.00;;
8268;SDS011;4174;48.304;16.364;2023-03-13T01:16:46;6.28;;;1.90;;
8268;SDS011;4174;48.304;16.364;2023-03-13T01:22:49;5.27;;;1.70;;
8268;SDS011;4174;48.304;16.364;2023-03-13T01:28:53;5.22;;;1.70;;
8268;SDS011;4174;48.304;16.364;2023-03-13T01:34:55;5.90;;;1.70;;
8268;SDS011;4174;48.304;16.364;2023-03-13T01:40:59;5.15;;;1.60;;
8268;SDS011;4174;48.304;16.364;2023-03-13T01:47:03;7.30;;;1.70;;
8268;SDS011;4174;48.304;16.364;2023-03-13T01:53:07;4.93;;;1.70;;
8268;SDS011;4174;48.304;16.364;2023-03-13T01:59:12;4.93;;;1.60;;
8268;SDS011;4174;48.304;16.364;2023-03-13T02:05:14;5.30;;;1.70;;
8268;SDS011;4174;48.304;16.364;2023-03-13T02:11:23;6.40;;;1.50;;
8268;SDS011;4174;48.304;16.364;2023-03-13T02:17:28;5.20;;;1.70;;
8268;SDS011;4174;48.304;16.364;2023-03-13T02:23:35;6.20;;;1.90;;
8268;SDS011;4174;48.304;16.364;2023-03-13T02:29:37;5.73;;;1.90;;
8268;SDS011;4174;48.304;16.364;2023-03-13T02:35:41;5.30;;;1.90;;
8268;SDS011;4174;48.304;16.364;2023-03-13T02:41:43;5.63;;;1.90;;
8268;SDS011;4174;48.304;16.364;2023-03-13T02:47:46;5.57;;;1.80;;
8268;SDS011;4174;48.304;16.364;2023-03-13T02:53:51;5.60;;;1.80;;
8268;SDS011;4174;48.304;16.364;2023-03-13T02:59:54;6.50;;;2.00;;
8268;SDS011;4174;48.304;16.364;2023-03-13T03:05:57;5.87;;;2.00;;
8268;SDS011;4174;48.304;16.364;2023-03-13T03:12:02;5.80;;;2.07;;
8268;SDS011;4174;48.304;16.364;2023-03-13T03:18:07;6.72;;;2.20;;
8268;SDS011;4174;48.304;16.364;2023-03-13T03:24:11;7.12;;;2.30;;
8268;SDS011;4174;48.304;16.364;2023-03-13T03:30:15;7.17;;;2.30;;
8268;SDS011;4174;48.304;16.364;2023-03-13T03:36:20;6.83;;;2.23;;
8268;SDS011;4174;48.304;16.364;2023-03-13T03:42:22;7.05;;;2.20;;
8268;SDS011;4174;48.304;16.364;2023-03-13T03:48:26;5.80;;;2.03;;
8268;SDS011;4174;48.304;16.364;2023-03-13T03:54:28;7.47;;;2.40;;
8268;SDS011;4174;48.304;16.364;2023-03-13T04:00:32;8.30;;;2.50;;
8268;SDS011;4174;48.304;16.364;2023-03-13T04:06:35;5.93;;;2.10;;
8268;SDS011;4174;48.304;16.364;2023-03-13T04:12:39;6.63;;;2.30;;
8268;SDS011;4174;48.304;16.364;2023-03-13T04:18:42;6.43;;;2.07;;
8268;SDS011;4174;48.304;16.364;2023-03-13T04:24:45;6.50;;;1.97;;
8268;SDS011;4174;48.304;16.364;2023-03-13T04:30:49;5.23;;;1.80;;
8268;SDS011;4174;48.304;16.364;2023-03-13T04:36:52;6.70;;;2.13;;
8268;SDS011;4174;48.304;16.364;2023-03-13T04:42:57;7.78;;;2.20;;
8268;SDS011;4174;48.304;16.364;2023-03-13T04:49:01;7.18;;;2.10;;
8268;SDS011;4174;48.304;16.364;2023-03-13T04:55:05;6.57;;;2.15;;
8268;SDS011;4174;48.304;16.364;2023-03-13T05:01:10;6.07;;;2.20;;
8268;SDS011;4174;48.304;16.364;2023-03-13T05:07:14;5.50;;;2.00;;
8268;SDS011;4174;48.304;16.364;2023-03-13T05:13:17;7.70;;;1.83;;
8268;SDS011;4174;48.304;16.364;2023-03-13T05:19:22;6.17;;;2.03;;
8268;SDS011;4174;48.304;16.364;2023-03-13T05:25:26;5.93;;;1.93;;
8268;SDS011;4174;48.304;16.364;2023-03-13T05:31:30;9.67;;;3.60;;
8268;SDS011;4174;48.304;16.364;2023-03-13T05:37:34;6.47;;;1.80;;
8268;SDS011;4174;48.304;16.364;2023-03-13T05:43:38;7.73;;;2.70;;
8268;SDS011;4174;48.304;16.364;2023-03-13T05:49:42;6.07;;;1.90;;
8268;SDS011;4174;48.304;16.364;2023-03-13T05:55:46;6.57;;;2.17;;
8268;SDS011;4174;48.304;16.364;2023-03-13T06:01:50;6.68;;;2.00;;
8268;SDS011;4174;48.304;16.364;2023-03-13T06:07:53;7.20;;;2.33;;
8268;SDS011;4174;48.304;16.364;2023-03-13T06:13:58;5.80;;;2.17;;
8268;SDS011;4174;48.304;16.364;2023-03-13T06:20:02;6.65;;;2.12;;
8268;SDS011;4174;48.304;16.364;2023-03-13T06:26:06;11.35;;;4.37;;
8268;SDS011;4174;48.304;16.364;2023-03-13T06:32:10;7.50;;;2.20;;
8268;SDS011;4174;48.304;16.364;2023-03-13T06:38:13;8.50;;;2.70;;
8268;SDS011;4174;48.304;16.364;2023-03-13T06:44:17;8.23;;;2.90;;
8268;SDS011;4174;48.304;16.364;2023-03-13T06:50:21;8.13;;;2.97;;
8268;SDS011;4174;48.304;16.364;2023-03-13T06:56:26;7.90;;;3.03;;
8268;SDS011;4174;48.304;16.364;2023-03-13T07:02:29;12.37;;;2.78;;
8268;SDS011;4174;48.304;16.364;2023-03-13T07:08:34;8.30;;;2.60;;
8268;SDS011;4174;48.304;16.364;2023-03-13T07:14:37;7.00;;;2.93;;
8268;SDS011;4174;48.304;16.364;2023-03-13T07:20:40;7.75;;;2.62;;
8268;SDS011;4174;48.304;16.364;2023-03-13T07:26:43;7.73;;;2.50;;
8268;SDS011;4174;48.304;16.364;2023-03-13T07:32:46;7.30;;;2.50;;
8268;SDS011;4174;48.304;16.364;2023-03-13T07:38:50;8.30;;;2.70;;
8268;SDS011;4174;48.304;16.364;2023-03-13T07:44:53;7.87;;;3.00;;
8268;SDS011;4174;48.304;16.364;2023-03-13T07:50:57;8.60;;;3.00;;
8268;SDS011;4174;48.304;16.364;2023-03-13T07:57:00;8.10;;;2.77;;
8268;SDS011;4174;48.304;16.364;2023-03-13T08:03:02;6.50;;;2.05;;
8268;SDS011;4174;48.304;16.364;2023-03-13T08:09:07;6.83;;;2.03;;
8268;SDS011;4174;48.304;16.364;2023-03-13T08:15:10;7.05;;;1.98;;
8268;SDS011;4174;48.304;16.364;2023-03-13T08:21:15;5.27;;;1.80;;
8268;SDS011;4174;48.304;16.364;2023-03-13T08:27:18;9.88;;;2.05;;
8268;SDS011;4174;48.304;16.364;2023-03-13T08:33:21;6.90;;;2.10;;
8268;SDS011;4174;48.304;16.364;2023-03-13T08:39:26;6.57;;;1.80;;
8268;SDS011;4174;48.304;16.364;2023-03-13T08:45:31;8.02;;;2.67;;
8268;SDS011;4174;48.304;16.364;2023-03-13T08:51:35;8.52;;;3.50;;
8268;SDS011;4174;48.304;16.364;2023-03-13T08:57:39;11.27;;;4.20;;
8268;SDS011;4174;48.304;16.364;2023-03-13T09:03:43;8.68;;;3.40;;
8268;SDS011;4174;48.304;16.364;2023-03-13T09:09:47;8.63;;;3.43;;
8268;SDS011;4174;48.304;16.364;2023-03-13T09:15:54;8.00;;;3.30;;
8268;SDS011;4174;48.304;16.364;2023-03-13T09:21:59;11.63;;;3.85;;
8268;SDS011;4174;48.304;16.364;2023-03-13T09:28:03;10.43;;;4.13;;
8268;SDS011;4174;48.304;16.364;2023-03-13T09:34:07;9.17;;;3.70;;
8268;SDS011;4174;48.304;16.364;2023-03-13T09:40:13;8.55;;;3.10;;
8268;SDS011;4174;48.304;16.364;2023-03-13T09:46:19;7.90;;;3.03;;
8268;SDS011;4174;48.304;16.364;2023-03-13T09:52:39;8.55;;;3.00;;
8268;SDS011;4174;48.304;16.364;2023-03-13T09:58:49;8.02;;;2.97;;
8268;SDS011;4174;48.304;16.364;2023-03-13T10:04:50;9.00;;;3.10;;
8268;SDS011;4174;48.304;16.364;2023-03-13T10:10:54;10.35;;;3.50;;
8268;SDS011;4174;48.304;16.364;2023-03-13T10:17:06;7.63;;;3.33;;
8268;SDS011;4174;48.304;16.364;2023-03-13T10:23:26;8.65;;;3.40;;
8268;SDS011;4174;48.304;16.364;2023-03-13T10:29:29;10.45;;;3.87;;
8268;SDS011;4174;48.304;16.364;2023-03-13T10:35:33;9.53;;;3.60;;
8268;SDS011;4174;48.304;16.364;2023-03-13T10:41:36;8.93;;;3.70;;
8268;SDS011;4174;48.304;16.364;2023-03-13T10:47:41;12.00;;;3.90;;
8268;SDS011;4174;48.304;16.364;2023-03-13T10:53:44;10.23;;;4.20;;
8268;SDS011;4174;48.304;16.364;2023-03-13T10:59:48;10.60;;;4.30;;
8268;SDS011;4174;48.304;16.364;2023-03-13T11:06:00;9.05;;;3.87;;
8268;SDS011;4174;48.304;16.364;2023-03-13T11:12:18;10.20;;;4.28;;
8268;SDS011;4174;48.304;16.364;2023-03-13T11:18:14;12.40;;;4.87;;
8268;SDS011;4174;48.304;16.364;2023-03-13T11:30:45;11.07;;;4.00;;
8268;SDS011;4174;48.304;16.364;2023-03-13T11:43:21;9.65;;;3.90;;
8268;SDS011;4174;48.304;16.364;2023-03-13T11:49:34;8.63;;;3.83;;
8268;SDS011;4174;48.304;16.364;2023-03-13T11:55:48;10.50;;;3.80;;
8268;SDS011;4174;48.304;16.364;2023-03-13T12:02:17;9.63;;;3.80;;
8268;SDS011;4174;48.304;16.364;2023-03-13T12:08:35;8.70;;;3.47;;
8268;SDS011;4174;48.304;16.364;2023-03-13T12:15:15;8.45;;;3.35;;
8268;SDS011;4174;48.304;16.364;2023-03-13T12:21:03;9.50;;;3.40;;
8268;SDS011;4174;48.304;16.364;2023-03-13T12:27:12;11.93;;;3.60;;
8268;SDS011;4174;48.304;16.364;2023-03-13T12:33:25;7.50;;;3.25;;
8268;SDS011;4174;48.304;16.364;2023-03-13T12:39:34;8.65;;;2.75;;
8268;SDS011;4174;48.304;16.364;2023-03-13T12:45:37;6.23;;;2.47;;
8268;SDS011;4174;48.304;16.364;2023-03-13T12:51:43;8.77;;;2.43;;
8268;SDS011;4174;48.304;16.364;2023-03-13T12:58:07;7.18;;;2.50;;
8268;SDS011;4174;48.304;16.364;2023-03-13T13:04:12;7.10;;;2.43;;
8268;SDS011;4174;48.304;16.364;2023-03-13T13:10:17;7.87;;;2.67;;
8268;SDS011;4174;48.304;16.364;2023-03-13T13:16:21;11.00;;;3.10;;
8268;SDS011;4174;48.304;16.364;2023-03-13T13:28:51;7.62;;;3.10;;
8268;SDS011;4174;48.304;16.364;2023-03-13T13:34:54;8.50;;;3.20;;
8268;SDS011;4174;48.304;16.364;2023-03-13T13:40:57;8.73;;;2.67;;
8268;SDS011;4174;48.304;16.364;2023-03-13T13:47:03;6.90;;;2.70;;
8268;SDS011;4174;48.304;16.364;2023-03-13T13:59:31;7.20;;;2.87;;
8268;SDS011;4174;48.304;16.364;2023-03-13T14:05:34;7.77;;;2.80;;
8268;SDS011;4174;48.304;16.364;2023-03-13T14:11:37;8.50;;;2.60;;
8268;SDS011;4174;48.304;16.364;2023-03-13T14:17:43;8.30;;;3.00;;
8268;SDS011;4174;48.304;16.364;2023-03-13T14:23:47;7.60;;;2.53;;
8268;SDS011;4174;48.304;16.364;2023-03-13T14:36:01;6.65;;;2.47;;
8268;SDS011;4174;48.304;16.364;2023-03-13T14:42:09;6.90;;;2.55;;
8268;SDS011;4174;48.304;16.364;2023-03-13T14:48:22;8.10;;;2.70;;
8268;SDS011;4174;48.304;16.364;2023-03-13T14:54:35;8.17;;;2.40;;
8268;SDS011;4174;48.304;16.364;2023-03-13T15:00:40;7.25;;;2.90;;
8268;SDS011;4174;48.304;16.364;2023-03-13T15:06:45;7.03;;;2.45;;
8268;SDS011;4174;48.304;16.364;2023-03-13T15:12:48;6.20;;;2.17;;
8268;SDS011;4174;48.304;16.364;2023-03-13T15:18:51;7.87;;;2.40;;
8268;SDS011;4174;48.304;16.364;2023-03-13T15:24:54;6.90;;;2.43;;
8268;SDS011;4174;48.304;16.364;2023-03-13T15:30:56;6.93;;;2.70;;
8268;SDS011;4174;48.304;16.364;2023-03-13T15:37:00;6.97;;;2.40;;
8268;SDS011;4174;48.304;16.364;2023-03-13T15:43:04;7.73;;;2.50;;
8268;SDS011;4174;48.304;16.364;2023-03-13T15:49:08;8.47;;;3.37;;
8268;SDS011;4174;48.304;16.364;2023-03-13T15:55:10;7.30;;;2.70;;
8268;SDS011;4174;48.304;16.364;2023-03-13T16:01:13;7.28;;;2.42;;
8268;SDS011;4174;48.304;16.364;2023-03-13T16:07:17;7.37;;;2.27;;
8268;SDS011;4174;48.304;16.364;2023-03-13T16:13:18;6.90;;;2.47;;
8268;SDS011;4174;48.304;16.364;2023-03-13T16:19:21;7.62;;;2.70;;
8268;SDS011;4174;48.304;16.364;2023-03-13T16:25:25;9.20;;;3.57;;
8268;SDS011;4174;48.304;16.364;2023-03-13T16:31:29;7.53;;;3.20;;
8268;SDS011;4174;48.304;16.364;2023-03-13T16:37:32;8.38;;;3.10;;
8268;SDS011;4174;48.304;16.364;2023-03-13T16:43:35;7.30;;;2.77;;
8268;SDS011;4174;48.304;16.364;2023-03-13T16:49:39;10.57;;;4.10;;
8268;SDS011;4174;48.304;16.364;2023-03-13T16:55:42;9.57;;;3.83;;
8268;SDS011;4174;48.304;16.364;2023-03-13T17:01:46;7.00;;;2.90;;
8268;SDS011;4174;48.304;16.364;2023-03-13T17:07:51;7.47;;;2.97;;
8268;SDS011;4174;48.304;16.364;2023-03-13T17:13:54;7.35;;;2.90;;
8268;SDS011;4174;48.304;16.364;2023-03-13T17:19:58;8.80;;;3.30;;
8268;SDS011;4174;48.304;16.364;2023-03-13T17:26:01;10.50;;;3.63;;
8268;SDS011;4174;48.304;16.364;2023-03-13T17:32:07;9.93;;;4.22;;
8268;SDS011;4174;48.304;16.364;2023-03-13T17:38:09;8.80;;;3.30;;
8268;SDS011;4174;48.304;16.364;2023-03-13T17:44:10;7.13;;;3.07;;
8268;SDS011;4174;48.304;16.364;2023-03-13T17:50:15;7.80;;;2.80;;
8268;SDS011;4174;48.304;16.364;2023-03-13T17:56:19;8.73;;;3.00;;
8268;SDS011;4174;48.304;16.364;2023-03-13T18:02:21;9.73;;;2.92;;
8268;SDS011;4174;48.304;16.364;2023-03-13T18:08:24;6.67;;;2.70;;
8268;SDS011;4174;48.304;16.364;2023-03-13T18:14:28;8.03;;;3.10;;
8268;SDS011;4174;48.304;16.364;2023-03-13T18:20:32;7.82;;;3.10;;
8268;SDS011;4174;48.304;16.364;2023-03-13T18:26:38;8.77;;;3.30;;
8268;SDS011;4174;48.304;16.364;2023-03-13T18:32:40;8.00;;;3.10;;
8268;SDS011;4174;48.304;16.364;2023-03-13T18:38:44;8.83;;;3.57;;
8268;SDS011;4174;48.304;16.364;2023-03-13T18:44:46;8.93;;;3.40;;
8268;SDS011;4174;48.304;16.364;2023-03-13T18:50:49;9.48;;;3.58;;
8268;SDS011;4174;48.304;16.364;2023-03-13T18:56:54;9.37;;;3.37;;
8268;SDS011;4174;48.304;16.364;2023-03-13T19:02:58;8.13;;;3.25;;
8268;SDS011;4174;48.304;16.364;2023-03-13T19:09:06;8.50;;;3.40;;
8268;SDS011;4174;48.304;16.364;2023-03-13T19:15:12;10.00;;;4.07;;
8268;SDS011;4174;48.304;16.364;2023-03-13T19:21:19;8.20;;;3.40;;
8268;SDS011;4174;48.304;16.364;2023-03-13T19:27:22;7.83;;;3.50;;
8268;SDS011;4174;48.304;16.364;2023-03-13T19:33:26;9.38;;;3.50;;
8268;SDS011;4174;48.304;16.364;2023-03-13T19:39:31;9.80;;;3.60;;
8268;SDS011;4174;48.304;16.364;2023-03-13T19:45:34;8.10;;;3.30;;
8268;SDS011;4174;48.304;16.364;2023-03-13T19:51:38;7.60;;;3.30;;
8268;SDS011;4174;48.304;16.364;2023-03-13T19:57:41;8.57;;;3.58;;
8268;SDS011;4174;48.304;16.364;2023-03-13T20:03:46;9.30;;;3.30;;
8268;SDS011;4174;48.304;16.364;2023-03-13T20:09:49;10.23;;;4.40;;
8268;SDS011;4174;48.304;16.364;2023-03-13T20:15:54;12.93;;;4.63;;
8268;SDS011;4174;48.304;16.364;2023-03-13T20:21:57;11.30;;;4.10;;
8268;SDS011;4174;48.304;16.364;2023-03-13T20:28:01;11.53;;;4.50;;
8268;SDS011;4174;48.304;16.364;2023-03-13T20:34:04;10.55;;;4.00;;
8268;SDS011;4174;48.304;16.364;2023-03-13T20:40:08;10.63;;;3.90;;
8268;SDS011;4174;48.304;16.364;2023-03-13T20:46:13;10.73;;;4.27;;
8268;SDS011;4174;48.304;16.364;2023-03-13T20:52:17;10.70;;;4.30;;
8268;SDS011;4174;48.304;16.364;2023-03-13T20:58:21;9.27;;;3.97;;
8268;SDS011;4174;48.304;16.364;2023-03-13T21:04:24;11.45;;;4.00;;
8268;SDS011;4174;48.304;16.364;2023-03-13T21:10:27;9.67;;;3.87;;
8268;SDS011;4174;48.304;16.364;2023-03-13T21:16:30;10.90;;;4.20;;
8268;SDS011;4174;48.304;16.364;2023-03-13T21:22:35;9.83;;;4.13;;
8268;SDS011;4174;48.304;16.364;2023-03-13T21:28:38;10.52;;;4.37;;
8268;SDS011;4174;48.304;16.364;2023-03-13T21:34:41;11.97;;;4.30;;
8268;SDS011;4174;48.304;16.364;2023-03-13T21:40:45;10.33;;;4.33;;
8268;SDS011;4174;48.304;16.364;2023-03-13T21:46:48;11.93;;;4.32;;
8268;SDS011;4174;48.304;16.364;2023-03-13T21:52:52;10.73;;;4.47;;
8268;SDS011;4174;48.304;16.364;2023-03-13T21:58:56;13.25;;;4.62;;
8268;SDS011;4174;48.304;16.364;2023-03-13T22:05:00;11.90;;;4.17;;
8268;SDS011;4174;48.304;16.364;2023-03-13T22:11:02;11.02;;;4.50;;
8268;SDS011;4174;48.304;16.364;2023-03-13T22:17:06;10.95;;;4.60;;
8268;SDS011;4174;48.304;16.364;2023-03-13T22:23:10;10.07;;;4.30;;
8268;SDS011;4174;48.304;16.364;2023-03-13T22:29:13;10.90;;;4.10;;
8268;SDS011;4174;48.304;16.364;2023-03-13T22:35:17;9.73;;;4.13;;
8268;SDS011;4174;48.304;16.364;2023-03-13T22:41:22;11.27;;;3.78;;
8268;SDS011;4174;48.304;16.364;2023-03-13T22:47:26;9.77;;;3.87;;
8268;SDS011;4174;48.304;16.364;2023-03-13T22:53:30;9.40;;;3.67;;
8268;SDS011;4174;48.304;16.364;2023-03-13T22:59:32;9.37;;;3.77;;
8268;SDS011;4174;48.304;16.364;2023-03-13T23:05:40;10.87;;;4.10;;
8268;SDS011;4174;48.304;16.364;2023-03-13T23:11:41;10.70;;;3.80;;
8268;SDS011;4174;48.304;16.364;2023-03-13T23:17:45;9.50;;;3.70;;
8268;SDS011;4174;48.304;16.364;2023-03-13T23:23:51;9.63;;;3.60;;
8268;SDS011;4174;48.304;16.364;2023-03-13T23:29:51;11.50;;;3.70;;
8268;SDS011;4174;48.304;16.364;2023-03-13T23:35:55;9.37;;;3.20;;
8268;SDS011;4174;48.304;16.364;2023-03-13T23:41:59;9.13;;;3.60;;
8268;SDS011;4174;48.304;16.364;2023-03-13T23:48:02;9.77;;;3.40;;
8268;SDS011;4174;48.304;16.364;2023-03-13T23:54:06;7.97;;;3.15;;
